Airfield :







YOU CAN JOIN US ON...

 
LOGIN :

Register | Disclaimer

   EN    FR    IT 

 









Legend :    VFR   Marginal VFR   IFR   Intensive IFR   Very Intensive IFR
Visi :
Ceiling :
>= 8 km
>= 3000ft
5 to 8 km
1000 to 3000 ft
1500m to 5 km
500 to 1000 ft
800 to 1500m
200 to 500 ft
< 800m
< 200 ft
Symbols :   Thunderstorms  Fog  Heavy snow  Heavy precipitations  Wind > 20 kt






- Airport Elevation : 1270 ft
- IATA code : YMT


CYMT - Chapais

CURRENT METAR :
  • 291300Z AUTO 01005KT 9SM OVC010 M19/M21 A3018 RMK SLP262

EXPIRED METARs :
  • 291230Z AUTO 02009KT 9SM OVC010 M19/M21 A3017 RMK SLP259
  • 291210Z AUTO 35005KT 9SM -SN OVC010 M18/M20 A3016 RMK SLP256
  • 291100Z AUTO 35009G15KT 9SM OVC012 M18/M20 A3014 RMK SLP245

TAF TAF CYMT
Valid from the 29 at 13:00 until the 30 at 01:00 UTC


291239Z 2913/3001 34006KT P6SM -SN OVC012
TEMPO 2913/2917 P6SM NSW FEW015
FM291700 33006KT P6SM FEW015 RMK FCST BASED ON AUTO OBS. NXT FCST BY 291800Z



MET'MAP, your aeronautical weather chart ! - Copyright ORBIFLY December 2007 - Disclaimer

ORBIFLY MET'MAP TEAM :

Programming & Development : Alexandra Zaïnal
Concept & original design : Baudouin d'Aumeries
Assistance for programming : Marc-Olivier Méhu
Technical & hardware support : Manuel Goepfert

Contact : metmap@orbifly.com




SOURCES & CREDITS :

   NOAA